createdAt,value
2018-05-11T00:02:27.925Z,4.97
2018-05-11T00:04:56.196Z,5.20
2018-05-11T00:07:24.808Z,8.00
2018-05-11T00:09:53.806Z,14.03
2018-05-11T00:12:22.174Z,4.77
2018-05-11T00:14:50.431Z,5.20
2018-05-11T00:17:18.795Z,8.33
2018-05-11T00:19:47.125Z,6.00
2018-05-11T00:22:15.386Z,8.10
2018-05-11T00:24:43.723Z,6.87
2018-05-11T00:27:12.033Z,4.30
2018-05-11T00:29:40.298Z,7.60
2018-05-11T00:32:08.565Z,10.70
2018-05-11T00:34:37.130Z,4.50
2018-05-11T00:37:05.448Z,4.90
2018-05-11T00:39:33.717Z,5.70
2018-05-11T00:42:02.000Z,9.43
2018-05-11T00:44:30.285Z,4.47
2018-05-11T00:46:58.851Z,4.97
2018-05-11T00:49:27.331Z,4.37
2018-05-11T00:51:55.643Z,4.60
2018-05-11T00:54:23.990Z,8.80
2018-05-11T00:56:52.264Z,8.03
2018-05-11T00:59:20.543Z,4.77
2018-05-11T01:01:48.819Z,5.13
2018-05-11T01:04:17.098Z,4.50
2018-05-11T01:06:45.424Z,8.53
2018-05-11T01:09:13.693Z,6.57
2018-05-11T01:11:41.998Z,5.10
2018-05-11T01:14:10.257Z,5.00
2018-05-11T01:16:38.816Z,7.40
2018-05-11T01:19:07.074Z,6.40
2018-05-11T01:21:35.668Z,4.50
2018-05-11T01:24:03.935Z,6.30
2018-05-11T01:26:32.230Z,4.00
2018-05-11T01:29:00.553Z,4.10
2018-05-11T01:31:28.980Z,4.20
2018-05-11T01:33:57.146Z,4.93
2018-05-11T01:36:25.421Z,5.27
2018-05-11T01:38:53.710Z,5.50
2018-05-11T01:41:21.986Z,8.30
2018-05-11T01:43:50.301Z,6.80
2018-05-11T01:46:18.561Z,7.33
2018-05-11T01:48:46.815Z,4.10
2018-05-11T01:51:15.123Z,6.03
2018-05-11T01:53:43.381Z,4.63
2018-05-11T01:56:11.659Z,6.00
2018-05-11T01:58:39.915Z,4.47
2018-05-11T02:01:08.236Z,7.13
2018-05-11T02:03:36.501Z,4.50
2018-05-11T02:06:04.802Z,6.90
2018-05-11T02:08:33.976Z,6.63
2018-05-11T02:11:02.231Z,8.60
2018-05-11T02:13:30.510Z,5.23
2018-05-11T02:15:58.770Z,4.80
2018-05-11T02:18:27.051Z,4.57
2018-05-11T02:20:55.345Z,5.60
2018-05-11T02:23:23.617Z,4.30
2018-05-11T02:25:51.900Z,11.00
2018-05-11T02:28:20.249Z,4.03
2018-05-11T02:30:48.506Z,4.23
2018-05-11T02:33:16.787Z,6.80
2018-05-11T02:35:45.085Z,7.10
2018-05-11T02:38:13.406Z,6.30
2018-05-11T02:40:41.666Z,5.43
2018-05-11T02:43:09.934Z,6.33
2018-05-11T02:45:38.195Z,7.80
2018-05-11T02:48:06.477Z,4.23
2018-05-11T02:50:34.804Z,4.30
2018-05-11T02:53:03.147Z,4.20
2018-05-11T02:55:31.546Z,5.93
2018-05-11T02:57:59.878Z,4.17
2018-05-11T03:00:28.186Z,4.70
2018-05-11T03:02:56.451Z,3.97
2018-05-11T03:05:24.726Z,4.23
2018-05-11T03:07:52.996Z,3.93
2018-05-11T03:10:21.350Z,4.77
2018-05-11T03:12:53.855Z,6.43
2018-05-11T03:15:22.167Z,4.97
2018-05-11T03:17:51.146Z,4.83
2018-05-11T03:20:19.448Z,4.03
2018-05-11T03:22:47.718Z,4.13
2018-05-11T03:25:16.090Z,3.80
2018-05-11T03:27:45.416Z,3.80
2018-05-11T03:30:13.903Z,4.40
2018-05-11T03:32:42.975Z,3.93
2018-05-11T03:35:11.226Z,3.97
2018-05-11T03:37:39.503Z,4.03
2018-05-11T03:40:07.815Z,3.53
2018-05-11T03:42:36.134Z,4.33
2018-05-11T03:45:04.957Z,3.57
2018-05-11T03:47:33.290Z,5.93
2018-05-11T03:50:01.597Z,4.90
2018-05-11T03:52:29.873Z,4.20
2018-05-11T03:54:58.162Z,4.13
2018-05-11T03:57:26.541Z,6.00
2018-05-11T03:59:54.926Z,4.50
2018-05-11T04:02:35.105Z,12.30
2018-05-11T04:05:16.406Z,6.43
2018-05-11T04:07:56.449Z,3.83
2018-05-11T04:10:24.701Z,4.80
2018-05-11T04:12:53.333Z,3.77
2018-05-11T04:15:21.620Z,10.10
2018-05-11T04:17:51.139Z,3.93
2018-05-11T04:20:19.418Z,5.43
2018-05-11T04:22:47.694Z,4.10
2018-05-11T04:25:15.966Z,4.93
2018-05-11T04:27:44.251Z,5.57
2018-05-11T04:30:12.906Z,4.27
2018-05-11T04:32:41.339Z,4.23
2018-05-11T04:35:09.592Z,3.60
2018-05-11T04:37:37.833Z,4.33
2018-05-11T04:40:06.596Z,6.33
2018-05-11T04:42:34.843Z,5.53
2018-05-11T04:45:03.152Z,4.77
2018-05-11T04:47:31.485Z,5.03
2018-05-11T04:49:59.798Z,4.23
2018-05-11T04:52:28.071Z,4.70
2018-05-11T04:54:56.356Z,4.10
2018-05-11T04:57:24.602Z,6.07
2018-05-11T04:59:52.896Z,4.17
2018-05-11T05:02:21.164Z,5.50
2018-05-11T05:04:49.502Z,5.53
2018-05-11T05:07:18.093Z,6.50
2018-05-11T05:09:46.396Z,6.13
2018-05-11T05:12:14.655Z,6.00
2018-05-11T05:14:43.031Z,7.80
2018-05-11T05:17:11.294Z,6.43
2018-05-11T05:19:39.632Z,4.37
2018-05-11T05:22:07.919Z,5.57
2018-05-11T05:24:36.182Z,6.90
2018-05-11T05:27:04.534Z,4.90
2018-05-11T05:29:32.774Z,4.60
2018-05-11T05:32:01.068Z,12.83
2018-05-11T05:34:29.480Z,5.10
2018-05-11T05:36:57.761Z,10.23
2018-05-11T05:39:26.034Z,5.40
2018-05-11T05:41:54.301Z,5.90
2018-05-11T05:44:22.598Z,4.90
2018-05-11T05:46:50.867Z,7.27
2018-05-11T05:49:19.371Z,8.00
2018-05-11T05:51:47.670Z,9.60
2018-05-11T05:54:15.901Z,8.73
2018-05-11T05:56:44.254Z,5.63
2018-05-11T05:59:12.578Z,8.60
2018-05-11T06:01:40.875Z,10.70
2018-05-11T06:04:09.923Z,15.93
2018-05-11T06:06:38.209Z,6.20
2018-05-11T06:09:06.700Z,9.63
2018-05-11T06:11:35.079Z,11.90
2018-05-11T06:14:03.343Z,9.33
2018-05-11T06:16:31.763Z,8.30
2018-05-11T06:19:00.027Z,10.73
2018-05-11T06:21:28.277Z,7.60
2018-05-11T06:23:56.678Z,15.10
2018-05-11T06:26:24.950Z,8.90
2018-05-11T06:28:53.223Z,7.87
2018-05-11T06:31:21.491Z,18.20
2018-05-11T06:33:49.769Z,12.97
2018-05-11T06:36:18.084Z,11.03
2018-05-11T06:38:46.382Z,11.57
2018-05-11T06:41:14.650Z,11.37
2018-05-11T06:43:42.933Z,17.40
2018-05-11T06:46:11.220Z,15.03
2018-05-11T06:48:39.547Z,13.40
2018-05-11T06:51:07.806Z,15.90
2018-05-11T06:53:36.192Z,12.67
2018-05-11T06:56:04.463Z,19.60
2018-05-11T06:58:32.783Z,19.97
2018-05-11T07:01:01.034Z,17.10
2018-05-11T07:03:29.368Z,14.70
2018-05-11T07:05:57.743Z,19.83
2018-05-11T07:08:27.007Z,21.13
2018-05-11T07:10:55.275Z,21.40
2018-05-11T07:13:23.795Z,15.97
2018-05-11T07:15:52.080Z,18.57
2018-05-11T07:18:20.358Z,21.30
2018-05-11T07:20:48.686Z,16.07
2018-05-11T07:23:16.973Z,16.97
2018-05-11T07:25:45.388Z,18.87
2018-05-11T07:28:13.606Z,15.70
2018-05-11T07:30:41.947Z,23.43
2018-05-11T07:33:10.211Z,23.30
2018-05-11T07:35:39.448Z,23.43
2018-05-11T07:38:07.745Z,21.07
2018-05-11T07:40:36.133Z,24.80
2018-05-11T07:43:04.583Z,22.37
2018-05-11T07:45:32.970Z,21.20
2018-05-11T07:48:01.279Z,22.13
2018-05-11T07:50:29.666Z,22.17
2018-05-11T07:52:57.934Z,22.00
2018-05-11T07:55:26.243Z,18.57
2018-05-11T07:57:54.574Z,22.87
2018-05-11T08:00:22.876Z,20.80
2018-05-11T08:02:51.252Z,21.47
2018-05-11T08:05:19.490Z,19.23
2018-05-11T08:07:47.857Z,25.57
2018-05-11T08:10:16.151Z,19.17
2018-05-11T08:12:44.463Z,20.97
2018-05-11T08:15:12.783Z,22.03
2018-05-11T08:17:41.176Z,25.37
2018-05-11T08:20:09.560Z,24.00
2018-05-11T08:22:37.834Z,16.77
2018-05-11T08:25:06.137Z,21.17
2018-05-11T08:27:34.529Z,18.20
2018-05-11T08:30:02.821Z,18.80
2018-05-11T08:32:31.317Z,18.00
2018-05-11T08:34:59.720Z,22.53
2018-05-11T08:37:28.055Z,20.60
2018-05-11T08:39:56.386Z,23.70
2018-05-11T08:42:24.928Z,19.27
2018-05-11T08:44:53.225Z,25.90
2018-05-11T08:47:21.524Z,23.00
2018-05-11T08:49:49.809Z,21.50
2018-05-11T08:52:18.123Z,18.70
2018-05-11T08:54:46.531Z,26.20
2018-05-11T08:57:15.396Z,17.87
2018-05-11T08:59:43.603Z,51.43
2018-05-11T09:02:11.908Z,19.57
2018-05-11T09:04:40.215Z,25.77
2018-05-11T09:07:08.555Z,18.17
2018-05-11T09:09:36.860Z,15.30
2018-05-11T09:12:05.139Z,19.67
2018-05-11T09:14:33.473Z,20.60
2018-05-11T09:17:02.680Z,18.53
2018-05-11T09:19:30.991Z,20.00
2018-05-11T09:21:59.352Z,14.67
2018-05-11T09:24:27.627Z,18.23
2018-05-11T09:26:55.934Z,21.93
2018-05-11T09:29:24.234Z,21.50
2018-05-11T09:31:52.579Z,20.20
2018-05-11T09:34:20.795Z,22.43
2018-05-11T09:36:49.083Z,20.73
2018-05-11T09:39:17.418Z,14.17
2018-05-11T09:41:45.675Z,16.00
2018-05-11T09:44:13.978Z,20.03
2018-05-11T09:46:42.263Z,14.33
2018-05-11T09:49:10.618Z,29.20
2018-05-11T09:51:38.887Z,17.93
2018-05-11T09:54:07.192Z,19.17
2018-05-11T09:56:35.505Z,19.43
2018-05-11T09:59:03.780Z,17.90
2018-05-11T10:01:32.856Z,18.67
2018-05-11T10:04:01.193Z,19.70
2018-05-11T10:06:29.679Z,16.07
2018-05-11T10:08:57.955Z,15.77
2018-05-11T10:11:26.409Z,21.90
2018-05-11T10:13:56.474Z,16.40
2018-05-11T10:16:25.862Z,13.80
2018-05-11T10:18:54.328Z,13.60
2018-05-11T10:21:22.643Z,16.03
2018-05-11T10:23:51.084Z,18.20
2018-05-11T10:26:19.896Z,15.20
2018-05-11T10:28:48.172Z,15.40
2018-05-11T10:31:16.544Z,17.10
2018-05-11T10:33:44.808Z,19.60
2018-05-11T10:36:13.155Z,15.40
2018-05-11T10:38:41.414Z,22.20
2018-05-11T10:41:09.696Z,18.80
2018-05-11T10:43:37.999Z,30.67
2018-05-11T10:46:07.885Z,18.33
2018-05-11T10:48:37.889Z,15.80
2018-05-11T10:51:07.009Z,16.13
2018-05-11T10:53:35.374Z,12.00
2018-05-11T10:56:04.486Z,13.30
2018-05-11T10:58:32.783Z,16.57
2018-05-11T11:01:01.087Z,18.37
2018-05-11T11:03:29.507Z,14.33
2018-05-11T11:05:57.921Z,12.63
2018-05-11T11:08:26.228Z,13.43
2018-05-11T11:10:54.501Z,15.43
2018-05-11T11:13:22.817Z,14.93
2018-05-11T11:15:51.073Z,17.27
2018-05-11T11:18:19.378Z,13.10
2018-05-11T11:20:47.716Z,15.50
2018-05-11T11:23:16.073Z,15.57
2018-05-11T11:25:44.345Z,12.87
2018-05-11T11:28:12.651Z,12.33
2018-05-11T11:30:40.930Z,14.73
2018-05-11T11:33:10.096Z,16.40
2018-05-11T11:35:38.394Z,14.37
2018-05-11T11:38:06.682Z,14.10
2018-05-11T11:40:34.960Z,13.37
2018-05-11T11:43:03.279Z,12.37
2018-05-11T11:45:31.561Z,15.90
2018-05-11T11:47:59.831Z,14.23
2018-05-11T11:50:28.186Z,12.50
2018-05-11T11:52:56.459Z,12.80
2018-05-11T11:55:24.714Z,14.27
2018-05-11T11:57:53.177Z,14.33
2018-05-11T12:00:21.480Z,18.20
2018-05-11T12:02:49.827Z,12.23
2018-05-11T12:05:18.192Z,12.73
2018-05-11T12:07:46.455Z,12.63
2018-05-11T12:10:14.876Z,11.90
2018-05-11T12:12:43.163Z,14.13
2018-05-11T12:15:11.478Z,12.20
2018-05-11T12:17:39.750Z,11.93
2018-05-11T12:20:08.096Z,14.40
2018-05-11T12:22:36.426Z,13.93
2018-05-11T12:25:04.855Z,13.87
2018-05-11T12:27:33.183Z,15.17
2018-05-11T12:30:02.950Z,12.43
2018-05-11T12:32:31.229Z,13.37
2018-05-11T12:34:59.570Z,15.43
2018-05-11T12:37:27.775Z,11.20
2018-05-11T12:39:56.075Z,14.50
2018-05-11T12:42:25.877Z,16.13
2018-05-11T12:44:54.237Z,12.00
2018-05-11T12:47:23.430Z,14.33
2018-05-11T12:49:51.930Z,16.27
2018-05-11T12:52:20.210Z,18.60
2018-05-11T12:54:48.505Z,15.40
2018-05-11T12:57:16.841Z,17.40
2018-05-11T12:59:45.828Z,13.30
2018-05-11T13:02:14.134Z,13.00
2018-05-11T13:04:42.420Z,13.87
2018-05-11T13:07:10.770Z,12.90
2018-05-11T13:09:39.038Z,12.77
2018-05-11T13:12:07.355Z,12.43
2018-05-11T13:14:35.646Z,12.60
2018-05-11T13:17:03.945Z,18.00
2018-05-11T13:19:32.206Z,13.20
2018-05-11T13:22:00.527Z,13.60
2018-05-11T13:24:28.840Z,20.93
2018-05-11T13:26:57.139Z,13.60
2018-05-11T13:29:25.486Z,13.30
2018-05-11T13:31:53.826Z,20.23
2018-05-11T13:34:22.118Z,16.93
2018-05-11T13:36:50.481Z,15.67
2018-05-11T13:39:18.829Z,12.33
2018-05-11T13:41:47.117Z,13.47
2018-05-11T13:44:15.375Z,11.83
2018-05-11T13:46:43.675Z,15.10
2018-05-11T13:49:12.336Z,12.30
2018-05-11T13:51:40.628Z,12.20
2018-05-11T13:54:08.923Z,13.40
2018-05-11T13:56:39.570Z,13.17
2018-05-11T13:59:09.657Z,10.07
2018-05-11T14:01:37.909Z,12.43
2018-05-11T14:04:06.282Z,11.00
2018-05-11T14:06:34.639Z,8.57
2018-05-11T14:09:02.934Z,12.30
2018-05-11T14:11:31.198Z,12.57
2018-05-11T14:13:59.482Z,12.40
2018-05-11T14:16:27.755Z,11.93
2018-05-11T14:18:56.370Z,12.80
2018-05-11T14:21:24.719Z,14.60
2018-05-11T14:23:53.063Z,12.20
2018-05-11T14:26:21.298Z,13.10
2018-05-11T14:28:49.628Z,12.27
2018-05-11T14:31:18.739Z,10.57
2018-05-11T14:33:47.014Z,16.50
2018-05-11T14:36:15.282Z,13.73
2018-05-11T14:38:43.581Z,12.13
2018-05-11T14:41:11.841Z,11.80
2018-05-11T14:43:40.130Z,14.67
2018-05-11T14:46:08.439Z,15.47
2018-05-11T14:48:36.702Z,11.90
2018-05-11T14:51:05.026Z,14.10
2018-05-11T14:53:33.287Z,14.83
2018-05-11T14:56:01.583Z,12.87
2018-05-11T14:58:29.858Z,12.20
2018-05-11T15:00:58.141Z,14.97
2018-05-11T15:03:26.424Z,12.27
2018-05-11T15:05:54.707Z,9.77
2018-05-11T15:08:22.982Z,12.80
2018-05-11T15:10:52.007Z,19.17
2018-05-11T15:13:20.294Z,11.43
2018-05-11T15:15:48.590Z,14.00
2018-05-11T15:18:16.850Z,10.17
2018-05-11T15:20:45.138Z,10.27
2018-05-11T15:23:14.308Z,13.70
2018-05-11T15:25:43.725Z,10.37
2018-05-11T15:28:12.002Z,12.70
2018-05-11T15:30:40.355Z,17.17
2018-05-11T15:33:08.626Z,11.90
2018-05-11T15:35:36.921Z,12.47
2018-05-11T15:38:05.188Z,10.90
2018-05-11T15:40:33.613Z,11.70
2018-05-11T15:43:02.448Z,13.17
2018-05-11T15:45:30.738Z,12.03
2018-05-11T15:47:59.013Z,12.00
2018-05-11T15:50:27.919Z,9.60
2018-05-11T15:52:56.376Z,10.17
2018-05-11T15:55:25.469Z,13.73
2018-05-11T15:57:53.847Z,9.97
2018-05-11T16:00:22.958Z,14.27
2018-05-11T16:02:51.269Z,12.60
2018-05-11T16:05:19.542Z,11.87
2018-05-11T16:07:47.855Z,10.43
2018-05-11T16:10:16.137Z,13.97
2018-05-11T16:12:44.568Z,13.47
2018-05-11T16:15:12.718Z,12.47
2018-05-11T16:17:41.047Z,11.87
2018-05-11T16:20:09.347Z,13.60
2018-05-11T16:22:37.651Z,13.83
2018-05-11T16:25:05.945Z,29.30
2018-05-11T16:27:35.086Z,11.10
2018-05-11T16:30:03.370Z,12.10
2018-05-11T16:32:31.683Z,11.90
2018-05-11T16:34:59.993Z,14.80
2018-05-11T16:37:28.306Z,17.23
2018-05-11T16:39:56.597Z,14.33
2018-05-11T16:42:24.886Z,19.83
2018-05-11T16:44:53.231Z,15.47
2018-05-11T16:47:21.486Z,13.83
2018-05-11T16:49:49.812Z,11.73
2018-05-11T16:52:18.870Z,12.40
2018-05-11T16:54:47.212Z,19.13
2018-05-11T16:57:15.510Z,15.50
2018-05-11T16:59:44.215Z,9.77
2018-05-11T17:02:12.489Z,13.10
2018-05-11T17:04:40.765Z,11.83
2018-05-11T17:07:09.036Z,11.50
2018-05-11T17:09:37.327Z,9.53
2018-05-11T17:12:05.583Z,13.60
2018-05-11T17:14:34.605Z,10.93
2018-05-11T17:17:03.187Z,9.80
2018-05-11T17:19:31.485Z,9.20
2018-05-11T17:21:59.841Z,9.60
2018-05-11T17:24:28.200Z,11.20
2018-05-11T17:26:56.656Z,16.50
2018-05-11T17:29:25.009Z,12.37
2018-05-11T17:31:53.300Z,12.57
2018-05-11T17:34:21.831Z,19.43
2018-05-11T17:36:50.147Z,12.47
2018-05-11T17:39:18.970Z,9.80
2018-05-11T17:41:47.547Z,11.33
2018-05-11T17:44:15.857Z,10.60
2018-05-11T17:46:44.172Z,19.27
2018-05-11T17:49:12.430Z,17.07
2018-05-11T17:51:40.782Z,13.70
2018-05-11T17:54:09.039Z,14.33
2018-05-11T17:56:37.334Z,18.77
2018-05-11T17:59:05.592Z,14.57
2018-05-11T18:01:35.629Z,10.43
2018-05-11T18:04:03.919Z,16.97
2018-05-11T18:06:32.305Z,14.10
2018-05-11T18:09:00.535Z,17.60
2018-05-11T18:11:28.827Z,12.77
2018-05-11T18:13:57.083Z,24.73
2018-05-11T18:16:25.423Z,20.70
2018-05-11T18:18:53.713Z,12.80
2018-05-11T18:21:21.982Z,17.17
2018-05-11T18:23:50.261Z,11.90
2018-05-11T18:26:18.549Z,12.83
2018-05-11T18:28:46.847Z,16.00
2018-05-11T18:31:15.114Z,28.67
2018-05-11T18:33:43.394Z,15.87
2018-05-11T18:36:11.697Z,12.80
2018-05-11T18:38:40.004Z,11.37
2018-05-11T18:41:08.295Z,9.23
2018-05-11T18:43:36.580Z,13.53
2018-05-11T18:46:04.894Z,11.70
2018-05-11T18:48:34.014Z,12.07
2018-05-11T18:51:02.308Z,10.93
2018-05-11T18:53:30.924Z,11.67
2018-05-11T18:55:58.874Z,13.90
2018-05-11T18:58:27.190Z,10.23
2018-05-11T19:00:55.426Z,11.00
2018-05-11T19:03:23.738Z,10.40
2018-05-11T19:05:51.993Z,14.73
2018-05-11T19:08:20.319Z,11.27
2018-05-11T19:10:48.582Z,13.20
2018-05-11T19:13:16.947Z,16.03
2018-05-11T19:15:45.375Z,11.33
2018-05-11T19:18:13.656Z,9.50
2018-05-11T19:20:41.927Z,10.70
2018-05-11T19:23:10.245Z,15.27
2018-05-11T19:25:38.523Z,15.10
2018-05-11T19:28:06.840Z,10.27
2018-05-11T19:30:35.124Z,10.13
2018-05-11T19:33:03.423Z,13.10
2018-05-11T19:35:31.743Z,14.03
2018-05-11T19:38:00.003Z,10.63
2018-05-11T19:40:28.302Z,9.50
2018-05-11T19:42:56.557Z,11.00
2018-05-11T19:45:24.882Z,12.00
2018-05-11T19:47:54.235Z,11.63
2018-05-11T19:50:22.518Z,10.90
2018-05-11T19:52:51.623Z,14.20
2018-05-11T19:55:19.923Z,10.43
2018-05-11T19:57:48.206Z,11.70
2018-05-11T20:00:16.499Z,14.30
2018-05-11T20:02:44.760Z,13.63
2018-05-11T20:05:13.169Z,10.80
2018-05-11T20:07:41.464Z,11.00
2018-05-11T20:10:10.384Z,10.80
2018-05-11T20:12:38.662Z,12.47
2018-05-11T20:15:06.937Z,16.37
2018-05-11T20:17:35.237Z,13.47
2018-05-11T20:20:03.495Z,11.23
2018-05-11T20:22:31.855Z,13.17
2018-05-11T20:25:00.135Z,12.13
2018-05-11T20:27:28.430Z,15.10
2018-05-11T20:29:56.687Z,10.97
2018-05-11T20:32:25.005Z,12.20
2018-05-11T20:34:54.269Z,10.03
2018-05-11T20:37:22.583Z,16.33
2018-05-11T20:39:50.857Z,11.17
2018-05-11T20:42:19.209Z,13.43
2018-05-11T20:44:47.454Z,13.80
2018-05-11T20:47:15.743Z,12.30
2018-05-11T20:49:44.012Z,12.07
2018-05-11T20:52:12.295Z,13.60
2018-05-11T20:54:40.582Z,11.93
2018-05-11T20:57:08.892Z,10.67
2018-05-11T20:59:37.173Z,17.30
2018-05-11T21:02:05.475Z,11.57
2018-05-11T21:04:33.749Z,10.47
2018-05-11T21:07:02.010Z,12.57
2018-05-11T21:09:30.308Z,11.30
2018-05-11T21:11:58.570Z,10.43
2018-05-11T21:14:26.875Z,31.90
2018-05-11T21:16:55.215Z,11.93
2018-05-11T21:19:23.503Z,11.20
2018-05-11T21:21:51.759Z,10.93
2018-05-11T21:24:20.085Z,10.70
2018-05-11T21:26:48.355Z,10.87
2018-05-11T21:29:16.671Z,17.07
2018-05-11T21:31:44.923Z,12.23
2018-05-11T21:34:13.251Z,10.40
2018-05-11T21:36:41.518Z,11.93
2018-05-11T21:39:09.900Z,12.97
2018-05-11T21:41:38.175Z,12.77
2018-05-11T21:44:06.485Z,14.70
2018-05-11T21:46:34.741Z,13.23
2018-05-11T21:49:03.026Z,10.07
2018-05-11T21:51:31.325Z,15.70
2018-05-11T21:53:59.629Z,11.30
2018-05-11T21:56:27.915Z,11.33
2018-05-11T21:58:56.987Z,13.20
2018-05-11T22:01:25.281Z,12.57
2018-05-11T22:03:53.551Z,11.70
2018-05-11T22:06:21.849Z,14.80
2018-05-11T22:08:50.102Z,12.30
2018-05-11T22:11:18.398Z,12.43
2018-05-11T22:13:46.710Z,11.07
2018-05-11T22:16:15.016Z,12.83
2018-05-11T22:18:43.295Z,11.40
2018-05-11T22:21:11.583Z,11.17
2018-05-11T22:23:39.861Z,13.20
2018-05-11T22:26:08.143Z,11.70
2018-05-11T22:28:36.461Z,11.77
2018-05-11T22:31:04.772Z,12.20
2018-05-11T22:33:33.062Z,11.17
2018-05-11T22:36:01.397Z,10.80
2018-05-11T22:38:29.646Z,11.37
2018-05-11T22:40:58.722Z,10.50
2018-05-11T22:43:27.839Z,12.23
2018-05-11T22:45:58.554Z,14.63
2018-05-11T22:48:26.803Z,18.40
2018-05-11T22:50:55.315Z,38.03
2018-05-11T22:53:23.608Z,11.40
2018-05-11T22:55:51.870Z,15.23
2018-05-11T22:58:21.068Z,24.60
2018-05-11T23:00:49.349Z,65.47
2018-05-11T23:03:17.644Z,21.70
2018-05-11T23:05:45.926Z,16.83
2018-05-11T23:08:14.279Z,11.70
2018-05-11T23:10:42.562Z,30.57
2018-05-11T23:13:10.868Z,12.67
2018-05-11T23:15:39.122Z,11.93
2018-05-11T23:18:07.425Z,11.97
2018-05-11T23:20:35.721Z,11.80
2018-05-11T23:23:03.997Z,27.60
2018-05-11T23:25:32.263Z,19.13
2018-05-11T23:28:00.794Z,23.97
2018-05-11T23:30:29.102Z,18.43
2018-05-11T23:32:57.402Z,23.83
2018-05-11T23:35:25.659Z,14.73
2018-05-11T23:37:53.957Z,15.33
2018-05-11T23:40:22.226Z,14.20
2018-05-11T23:42:50.503Z,11.63
2018-05-11T23:45:19.061Z,11.80
2018-05-11T23:47:47.342Z,13.93
2018-05-11T23:50:15.622Z,15.53
2018-05-11T23:52:43.912Z,13.60
2018-05-11T23:55:12.199Z,13.07
2018-05-11T23:57:40.516Z,15.97
